Time;durP1;ratioP1;P1;durP2;ratioP2;P2;SDS_P1;SDS_P2;PMS_P1;PMS_P2;Temp;Humidity;BMP_temperature;BMP_pressure;BME280_temperature;BME280_humidity;BME280_pressure;Samples;Min_cycle;Max_cycle;Signal;HPM_P1;HPM_P2
2023/10/31 00:01:50;;;;;;;;;;;;;;;;;;5048563;28;975;-73
2023/10/31 00:04:15;;;;;;;;;;;;;;;;;;5046839;28;1201;-73
2023/10/31 00:06:41;;;;;;;;;;;;;;;;;;5047913;28;857;-73
2023/10/31 00:09:06;;;;;;;;;;;;;;;;;;5047774;28;1957;-73
2023/10/31 00:11:31;;;;;;;;;;;;;;;;;;5048279;28;861;-74
2023/10/31 00:13:57;;;;;;;;;;;;;;;;;;5062980;28;1215;-74
2023/10/31 00:16:23;;;;;;;;;;;;;;;;;;5080738;28;923;-74
2023/10/31 00:18:49;;;;;;;;;;;;;;;;;;5047967;28;845;-74
2023/10/31 00:21:14;;;;;;;;;;;;;;;;;;5080211;28;793;-74
2023/10/31 00:23:43;;;;;;;;;;;;;;;;;;5048193;28;1026;-74
2023/10/31 00:26:09;;;;;;;;;;;;;;;;;;5048433;28;911;-74
2023/10/31 00:28:35;;;;;;;;;;;;;;;;;;5063307;28;1890;-74
2023/10/31 00:31:00;;;;;;;;;;;;;;;;;;5080298;28;888;-74
2023/10/31 00:33:26;;;;;;;;;;;;;;;;;;5048724;28;895;-74
2023/10/31 00:35:51;;;;;;;;;;;;;;;;;;5048192;28;978;-74
2023/10/31 00:38:16;;;;;;;;;;;;;;;;;;5064136;28;1494;-74
2023/10/31 00:40:41;;;;;;;;;;;;;;;;;;5046359;28;1277;-74
2023/10/31 00:43:06;;;;;;;;;;;;;;;;;;5080581;28;805;-74
2023/10/31 00:45:32;;;;;;;;;;;;;;;;;;5048174;28;896;-74
2023/10/31 00:47:57;;;;;;;;;;;;;;;;;;5078715;28;1889;-74
2023/10/31 00:50:22;;;;;;;;;;;;;;;;;;5079389;28;974;-74
2023/10/31 00:52:48;;;;;;;;;;;;;;;;;;5045548;28;1195;-73
2023/10/31 00:55:13;;;;;;;;;;;;;;;;;;5047038;28;952;-74
2023/10/31 00:57:38;;;;;;;;;;;;;;;;;;5045202;28;1254;-74
2023/10/31 01:00:04;;;;;;;;;;;;;;;;;;5039207;28;1211;-74
2023/10/31 01:02:29;;;;;;;;;;;;;;;;;;5033649;28;849;-74
2023/10/31 01:04:54;;;;;;;;;;;;;;;;;;5032809;28;904;-73
2023/10/31 01:07:19;;;;;;;;;;;;;;;;;;5033766;28;1955;-73
2023/10/31 01:09:45;;;;;;;;;;;;;;;;;;5033193;28;845;-74
2023/10/31 01:12:11;;;;;;;;;;;;;;;;;;5031880;28;1173;-74
2023/10/31 01:14:36;;;;;;;;;;;;;;;;;;5048907;28;1337;-74
2023/10/31 01:17:01;;;;;;;;;;;;;;;;;;5032426;28;844;-74
2023/10/31 01:19:26;;;;;;;;;;;;;;;;;;5033556;28;829;-74
2023/10/31 01:21:52;;;;;;;;;;;;;;;;;;5047911;28;1326;-73
2023/10/31 01:24:17;;;;;;;;;;;;;;;;;;5033081;28;814;-74
2023/10/31 01:26:42;;;;;;;;;;;;;;;;;;5032872;28;965;-74
2023/10/31 01:29:07;;;;;;;;;;;;;;;;;;5065077;28;1898;-73
2023/10/31 01:31:34;;;;;;;;;;;;;;;;;;5032100;28;1187;-74
2023/10/31 01:33:59;;;;;;;;;;;;;;;;;;5064387;28;915;-73
2023/10/31 01:36:26;;;;;;;;;;;;;;;;;;5033113;28;979;-74
2023/10/31 01:38:51;;;;;;;;;;;;;;;;;;5031579;28;1222;-74
2023/10/31 01:41:16;;;;;;;;;;;;;;;;;;5031604;28;1162;-74
2023/10/31 01:43:42;;;;;;;;;;;;;;;;;;5032587;28;907;-73
2023/10/31 01:46:07;;;;;;;;;;;;;;;;;;5048209;28;1207;-73
2023/10/31 01:48:33;;;;;;;;;;;;;;;;;;5065051;28;1925;-73
2023/10/31 01:50:59;;;;;;;;;;;;;;;;;;5032727;28;877;-73
2023/10/31 01:53:25;;;;;;;;;;;;;;;;;;5031981;28;1161;-73
2023/10/31 01:55:52;;;;;;;;;;;;;;;;;;5033218;28;888;-73
2023/10/31 01:58:18;;;;;;;;;;;;;;;;;;5032929;28;931;-73
2023/10/31 02:00:44;;;;;;;;;;;;;;;;;;5031226;28;1290;-74
2023/10/31 02:03:09;;;;;;;;;;;;;;;;;;5033136;28;912;-74
2023/10/31 02:05:35;;;;;;;;;;;;;;;;;;5032341;28;1350;-73
2023/10/31 02:08:01;;;;;;;;;;;;;;;;;;5031333;28;1945;-73
2023/10/31 02:10:26;;;;;;;;;;;;;;;;;;5033238;28;849;-73
2023/10/31 02:12:51;;;;;;;;;;;;;;;;;;5032259;28;896;-73
2023/10/31 02:15:17;;;;;;;;;;;;;;;;;;5032945;28;880;-73
2023/10/31 02:17:42;;;;;;;;;;;;;;;;;;5032447;28;1043;-73
2023/10/31 02:20:07;;;;;;;;;;;;;;;;;;5064371;28;1058;-73
2023/10/31 02:22:33;;;;;;;;;;;;;;;;;;5032251;28;872;-73
2023/10/31 02:24:58;;;;;;;;;;;;;;;;;;5033043;28;885;-73
2023/10/31 02:27:23;;;;;;;;;;;;;;;;;;5032847;28;1879;-71
2023/10/31 02:29:48;;;;;;;;;;;;;;;;;;5032902;28;972;-72
2023/10/31 02:32:14;;;;;;;;;;;;;;;;;;5032834;28;1015;-73
2023/10/31 02:34:39;;;;;;;;;;;;;;;;;;5047641;28;1357;-73
2023/10/31 02:37:05;;;;;;;;;;;;;;;;;;5031960;28;916;-73
2023/10/31 02:39:30;;;;;;;;;;;;;;;;;;5064682;28;955;-73
2023/10/31 02:41:55;;;;;;;;;;;;;;;;;;5063570;28;833;-73
2023/10/31 02:44:21;;;;;;;;;;;;;;;;;;5030129;28;1300;-73
2023/10/31 02:46:46;;;;;;;;;;;;;;;;;;5063404;28;825;-73
2023/10/31 02:49:11;;;;;;;;;;;;;;;;;;5063676;28;1983;-73
2023/10/31 02:51:36;;;;;;;;;;;;;;;;;;5031629;28;837;-73
2023/10/31 02:54:02;;;;;;;;;;;;;;;;;;5029867;28;1239;-73
2023/10/31 02:56:27;;;;;;;;;;;;;;;;;;5031491;28;829;-73
2023/10/31 02:58:52;;;;;;;;;;;;;;;;;;5063334;28;951;-73
2023/10/31 03:01:19;;;;;;;;;;;;;;;;;;5063420;28;825;-73
2023/10/31 03:03:45;;;;;;;;;;;;;;;;;;5046132;28;1499;-73
2023/10/31 03:06:10;;;;;;;;;;;;;;;;;;5031501;28;813;-73
2023/10/31 03:08:36;;;;;;;;;;;;;;;;;;5029846;28;1890;-73
2023/10/31 03:11:01;;;;;;;;;;;;;;;;;;5030916;28;900;-73
2023/10/31 03:13:26;;;;;;;;;;;;;;;;;;5029627;28;1159;-73
2023/10/31 03:15:52;;;;;;;;;;;;;;;;;;5031036;28;876;-72
2023/10/31 03:18:17;;;;;;;;;;;;;;;;;;5029581;28;1362;-72
2023/10/31 03:20:43;;;;;;;;;;;;;;;;;;5063142;28;1007;-72
2023/10/31 03:23:08;;;;;;;;;;;;;;;;;;5030784;28;959;-72
2023/10/31 03:25:34;;;;;;;;;;;;;;;;;;5031160;28;889;-73
2023/10/31 03:27:59;;;;;;;;;;;;;;;;;;5030661;28;1981;-73
2023/10/31 03:30:24;;;;;;;;;;;;;;;;;;5063750;28;810;-73
2023/10/31 03:32:49;;;;;;;;;;;;;;;;;;5031539;28;842;-73
2023/10/31 03:35:15;;;;;;;;;;;;;;;;;;5063180;28;843;-73
2023/10/31 03:37:41;;;;;;;;;;;;;;;;;;5031370;28;853;-73
2023/10/31 03:40:08;;;;;;;;;;;;;;;;;;5031581;28;705;-73
2023/10/31 03:42:33;;;;;;;;;;;;;;;;;;5063822;28;864;-72
2023/10/31 03:44:58;;;;;;;;;;;;;;;;;;5063423;28;992;-73
2023/10/31 03:47:23;;;;;;;;;;;;;;;;;;5031451;28;1898;-73
2023/10/31 03:49:49;;;;;;;;;;;;;;;;;;5031148;28;833;-73
2023/10/31 03:52:14;;;;;;;;;;;;;;;;;;5030028;28;1419;-73
2023/10/31 03:54:39;;;;;;;;;;;;;;;;;;5063717;28;900;-73
2023/10/31 03:57:04;;;;;;;;;;;;;;;;;;5031315;28;897;-73
2023/10/31 03:59:30;;;;;;;;;;;;;;;;;;5063288;28;932;-73
2023/10/31 04:01:55;;;;;;;;;;;;;;;;;;5063388;28;915;-73
2023/10/31 04:04:20;;;;;;;;;;;;;;;;;;5030811;28;805;-73
2023/10/31 04:06:45;;;;;;;;;;;;;;;;;;5030060;28;841;-73
2023/10/31 04:09:11;;;;;;;;;;;;;;;;;;5030618;28;1905;-73
2023/10/31 04:11:36;;;;;;;;;;;;;;;;;;5029053;28;1631;-73
2023/10/31 04:14:03;;;;;;;;;;;;;;;;;;5030293;28;900;-73
2023/10/31 04:16:28;;;;;;;;;;;;;;;;;;5029310;28;1211;-73
2023/10/31 04:18:53;;;;;;;;;;;;;;;;;;5031134;28;837;-73
2023/10/31 04:21:18;;;;;;;;;;;;;;;;;;5063128;28;909;-73
2023/10/31 04:23:44;;;;;;;;;;;;;;;;;;5063179;28;860;-73
2023/10/31 04:26:09;;;;;;;;;;;;;;;;;;5063772;28;971;-73
2023/10/31 04:28:34;;;;;;;;;;;;;;;;;;5063505;28;1894;-72
2023/10/31 04:30:59;;;;;;;;;;;;;;;;;;5030552;28;1034;-73
2023/10/31 04:33:25;;;;;;;;;;;;;;;;;;5030665;28;802;-73
2023/10/31 04:35:50;;;;;;;;;;;;;;;;;;5032611;28;924;-73
2023/10/31 04:38:15;;;;;;;;;;;;;;;;;;5034370;28;909;-73
2023/10/31 04:40:40;;;;;;;;;;;;;;;;;;5066284;28;916;-72
2023/10/31 04:43:06;;;;;;;;;;;;;;;;;;5034168;28;908;-73
2023/10/31 04:45:31;;;;;;;;;;;;;;;;;;5049534;28;1109;-73
2023/10/31 04:47:56;;;;;;;;;;;;;;;;;;5033151;28;1902;-73
2023/10/31 04:50:22;;;;;;;;;;;;;;;;;;5033877;28;766;-73
2023/10/31 04:52:47;;;;;;;;;;;;;;;;;;5066041;28;826;-72
2023/10/31 04:55:12;;;;;;;;;;;;;;;;;;5032813;28;1262;-73
2023/10/31 04:57:37;;;;;;;;;;;;;;;;;;5033276;28;877;-73
2023/10/31 05:00:05;;;;;;;;;;;;;;;;;;5033464;28;943;-73
2023/10/31 05:02:31;;;;;;;;;;;;;;;;;;5032528;28;1343;-73
2023/10/31 05:04:57;;;;;;;;;;;;;;;;;;5033714;28;888;-72
2023/10/31 05:07:23;;;;;;;;;;;;;;;;;;5032587;28;1107;-72
2023/10/31 05:09:48;;;;;;;;;;;;;;;;;;5032115;28;1902;-73
2023/10/31 05:12:14;;;;;;;;;;;;;;;;;;5065818;28;841;-73
2023/10/31 05:14:39;;;;;;;;;;;;;;;;;;5033821;28;880;-73
2023/10/31 05:17:05;;;;;;;;;;;;;;;;;;5033513;28;944;-73
2023/10/31 05:19:30;;;;;;;;;;;;;;;;;;5033756;28;771;-73
2023/10/31 05:21:55;;;;;;;;;;;;;;;;;;5032191;28;1382;-72
2023/10/31 05:24:20;;;;;;;;;;;;;;;;;;5034288;28;869;-73
2023/10/31 05:26:46;;;;;;;;;;;;;;;;;;5032938;28;1205;-73
2023/10/31 05:29:11;;;;;;;;;;;;;;;;;;5065658;28;1890;-73
2023/10/31 05:31:37;;;;;;;;;;;;;;;;;;5034315;28;984;-73
2023/10/31 05:34:03;;;;;;;;;;;;;;;;;;5033827;28;1082;-73
2023/10/31 05:36:29;;;;;;;;;;;;;;;;;;5065155;28;869;-73
2023/10/31 05:38:54;;;;;;;;;;;;;;;;;;5032525;28;1215;-73
2023/10/31 05:41:19;;;;;;;;;;;;;;;;;;5033462;28;963;-73
2023/10/31 05:43:45;;;;;;;;;;;;;;;;;;5031942;28;1452;-73
2023/10/31 05:46:10;;;;;;;;;;;;;;;;;;5032066;28;1239;-73
2023/10/31 05:48:39;;;;;;;;;;;;;;;;;;5032408;28;1914;-73
2023/10/31 05:51:04;;;;;;;;;;;;;;;;;;5031243;28;1426;-73
2023/10/31 05:53:30;;;;;;;;;;;;;;;;;;5033230;28;1003;-73
2023/10/31 05:55:55;;;;;;;;;;;;;;;;;;5032487;28;876;-73
2023/10/31 05:58:21;;;;;;;;;;;;;;;;;;5064829;28;844;-73
2023/10/31 06:00:46;;;;;;;;;;;;;;;;;;5064936;28;837;-73
2023/10/31 06:03:12;;;;;;;;;;;;;;;;;;5031692;28;1310;-72
2023/10/31 06:05:38;;;;;;;;;;;;;;;;;;5065079;28;829;-72
2023/10/31 06:08:03;;;;;;;;;;;;;;;;;;5064455;28;1898;-72
2023/10/31 06:10:28;;;;;;;;;;;;;;;;;;5030879;28;1306;-73
2023/10/31 06:12:53;;;;;;;;;;;;;;;;;;5031965;28;955;-72
2023/10/31 06:15:19;;;;;;;;;;;;;;;;;;5064495;28;975;-72
2023/10/31 06:17:44;;;;;;;;;;;;;;;;;;5064625;28;948;-72
2023/10/31 06:20:09;;;;;;;;;;;;;;;;;;5064281;28;1030;-72
2023/10/31 06:22:35;;;;;;;;;;;;;;;;;;5032688;28;1062;-73
2023/10/31 06:25:01;;;;;;;;;;;;;;;;;;5031202;28;1460;-73
2023/10/31 06:27:26;;;;;;;;;;;;;;;;;;5032708;28;853;-73
2023/10/31 06:29:51;;;;;;;;;;;;;;;;;;5032049;28;1879;-72
2023/10/31 06:32:17;;;;;;;;;;;;;;;;;;5033223;28;884;-73
2023/10/31 06:34:42;;;;;;;;;;;;;;;;;;5032913;28;849;-73
2023/10/31 06:37:07;;;;;;;;;;;;;;;;;;5063942;28;861;-73
2023/10/31 06:39:33;;;;;;;;;;;;;;;;;;5032521;28;984;-73
2023/10/31 06:41:58;;;;;;;;;;;;;;;;;;5030448;28;1386;-73
2023/10/31 06:44:23;;;;;;;;;;;;;;;;;;5032514;28;916;-72
2023/10/31 06:46:49;;;;;;;;;;;;;;;;;;5034293;28;1173;-72
2023/10/31 06:49:14;;;;;;;;;;;;;;;;;;5030308;28;1969;-72
2023/10/31 06:51:40;;;;;;;;;;;;;;;;;;5042109;28;1034;-72
2023/10/31 06:54:05;;;;;;;;;;;;;;;;;;5017142;28;1416;-72
2023/10/31 06:56:30;;;;;;;;;;;;;;;;;;5032574;28;762;-73
2023/10/31 06:58:55;;;;;;;;;;;;;;;;;;5013486;28;1319;-73
2023/10/31 07:01:21;;;;;;;;;;;;;;;;;;5033309;28;817;-73
2023/10/31 07:03:47;;;;;;;;;;;;;;;;;;5033229;28;1023;-73
2023/10/31 07:06:12;;;;;;;;;;;;;;;;;;5031286;28;900;-73
2023/10/31 07:08:37;;;;;;;;;;;;;;;;;;5031993;28;1932;-73
2023/10/31 07:11:03;;;;;;;;;;;;;;;;;;5031779;28;896;-73
2023/10/31 07:13:28;;;;;;;;;;;;;;;;;;5032916;28;908;-73
2023/10/31 07:15:53;;;;;;;;;;;;;;;;;;5013510;28;1396;-73
2023/10/31 07:18:19;;;;;;;;;;;;;;;;;;5031595;28;987;-73
2023/10/31 07:20:44;;;;;;;;;;;;;;;;;;5031186;28;848;-73
2023/10/31 07:23:09;;;;;;;;;;;;;;;;;;5030737;28;604;-73
2023/10/31 07:25:34;;;;;;;;;;;;;;;;;;5031743;28;1099;-73
2023/10/31 07:28:00;;;;;;;;;;;;;;;;;;5029795;28;1906;-73
2023/10/31 07:30:25;;;;;;;;;;;;;;;;;;5031915;28;1038;-73
2023/10/31 07:32:50;;;;;;;;;;;;;;;;;;5030803;28;1362;-73
2023/10/31 07:35:16;;;;;;;;;;;;;;;;;;5030237;28;929;-73
2023/10/31 07:37:41;;;;;;;;;;;;;;;;;;5030224;28;833;-72
2023/10/31 07:40:06;;;;;;;;;;;;;;;;;;5031063;28;888;-73
2023/10/31 07:42:32;;;;;;;;;;;;;;;;;;5014331;28;1266;-73
2023/10/31 07:44:57;;;;;;;;;;;;;;;;;;5013741;28;1189;-73
2023/10/31 07:47:22;;;;;;;;;;;;;;;;;;5030751;28;1181;-73
2023/10/31 07:49:48;;;;;;;;;;;;;;;;;;5031228;28;1906;-73
2023/10/31 07:52:13;;;;;;;;;;;;;;;;;;5030156;28;904;-73
2023/10/31 07:54:40;;;;;;;;;;;;;;;;;;5031552;28;879;-73
2023/10/31 07:57:05;;;;;;;;;;;;;;;;;;5031404;28;956;-73
2023/10/31 07:59:33;;;;;;;;;;;;;;;;;;5031631;28;893;-73
2023/10/31 08:01:58;;;;;;;;;;;;;;;;;;5031356;28;1411;-73
2023/10/31 08:04:23;;;;;;;;;;;;;;;;;;5014121;28;1221;-72
2023/10/31 08:06:48;;;;;;;;;;;;;;;;;;5013176;28;1176;-73
2023/10/31 08:09:16;;;;;;;;;;;;;;;;;;5032056;28;1942;-72
2023/10/31 08:11:41;;;;;;;;;;;;;;;;;;5017836;28;1224;-73
2023/10/31 08:14:06;;;;;;;;;;;;;;;;;;5033753;28;1167;-73
2023/10/31 08:16:31;;;;;;;;;;;;;;;;;;5034075;28;1452;-73
2023/10/31 08:18:57;;;;;;;;;;;;;;;;;;5034705;28;849;-73
2023/10/31 08:21:22;;;;;;;;;;;;;;;;;;5034228;28;849;-73
2023/10/31 08:23:48;;;;;;;;;;;;;;;;;;5034842;28;1003;-73
2023/10/31 08:26:13;;;;;;;;;;;;;;;;;;5032329;28;1194;-73
2023/10/31 08:28:39;;;;;;;;;;;;;;;;;;5033650;28;1910;-73
2023/10/31 08:31:04;;;;;;;;;;;;;;;;;;5034104;28;1054;-73
2023/10/31 08:33:29;;;;;;;;;;;;;;;;;;5034509;28;865;-72
2023/10/31 08:35:55;;;;;;;;;;;;;;;;;;5034185;28;822;-72
2023/10/31 08:38:20;;;;;;;;;;;;;;;;;;5034575;28;908;-72
2023/10/31 08:40:45;;;;;;;;;;;;;;;;;;5032783;28;1284;-72
2023/10/31 08:43:10;;;;;;;;;;;;;;;;;;5032394;28;1015;-72
2023/10/31 08:45:36;;;;;;;;;;;;;;;;;;5032688;28;1254;-72
2023/10/31 08:48:01;;;;;;;;;;;;;;;;;;5033461;28;1995;-72
2023/10/31 08:50:26;;;;;;;;;;;;;;;;;;5034178;28;838;-71
2023/10/31 08:52:52;;;;;;;;;;;;;;;;;;5038997;28;1172;-72
2023/10/31 08:55:17;;;;;;;;;;;;;;;;;;5035411;28;1228;-72
2023/10/31 08:57:43;;;;;;;;;;;;;;;;;;5053842;28;1019;-72
2023/10/31 09:00:08;;;;;;;;;;;;;;;;;;5053836;28;913;-73
2023/10/31 09:02:33;;;;;;;;;;;;;;;;;;5052145;28;1307;-72
2023/10/31 09:04:59;;;;;;;;;;;;;;;;;;5051711;28;1217;-72
2023/10/31 09:07:24;;;;;;;;;;;;;;;;;;5052386;28;1294;-73
2023/10/31 09:09:49;;;;;;;;;;;;;;;;;;5052050;28;1890;-73
2023/10/31 09:12:14;;;;;;;;;;;;;;;;;;5052084;28;1065;-73
2023/10/31 09:14:41;;;;;;;;;;;;;;;;;;5054219;28;931;-73
2023/10/31 09:17:07;;;;;;;;;;;;;;;;;;5035560;28;1349;-73
2023/10/31 09:19:32;;;;;;;;;;;;;;;;;;5052315;28;1179;-73
2023/10/31 09:21:58;;;;;;;;;;;;;;;;;;5050833;28;967;-73
2023/10/31 09:24:23;;;;;;;;;;;;;;;;;;5052679;28;1314;-72
2023/10/31 09:26:49;;;;;;;;;;;;;;;;;;5051968;28;1059;-73
2023/10/31 09:29:14;;;;;;;;;;;;;;;;;;5053261;28;1858;-73
2023/10/31 09:31:39;;;;;;;;;;;;;;;;;;5052148;28;1341;-73
2023/10/31 09:34:05;;;;;;;;;;;;;;;;;;5052960;28;887;-73
2023/10/31 09:36:32;;;;;;;;;;;;;;;;;;5036006;28;1466;-73
2023/10/31 09:38:57;;;;;;;;;;;;;;;;;;5052553;28;916;-73
2023/10/31 09:41:23;;;;;;;;;;;;;;;;;;5051743;28;1341;-73
2023/10/31 09:43:48;;;;;;;;;;;;;;;;;;5052420;28;920;-73
2023/10/31 09:46:13;;;;;;;;;;;;;;;;;;5051147;28;1217;-73
2023/10/31 09:48:39;;;;;;;;;;;;;;;;;;5052315;28;1977;-72
2023/10/31 09:51:05;;;;;;;;;;;;;;;;;;5052281;28;940;-73
2023/10/31 09:53:32;;;;;;;;;;;;;;;;;;5052957;28;837;-73
2023/10/31 09:55:57;;;;;;;;;;;;;;;;;;5051085;28;1180;-73
2023/10/31 09:58:23;;;;;;;;;;;;;;;;;;5053901;28;860;-73
2023/10/31 10:00:48;;;;;;;;;;;;;;;;;;5053878;28;1113;-73
2023/10/31 10:03:14;;;;;;;;;;;;;;;;;;5035169;28;1069;-73
2023/10/31 10:05:41;;;;;;;;;;;;;;;;;;5052036;28;1361;-73
2023/10/31 10:08:06;;;;;;;;;;;;;;;;;;5034148;28;1906;-73
2023/10/31 10:10:33;;;;;;;;;;;;;;;;;;5052047;28;1199;-73
2023/10/31 10:13:02;;;;;;;;;;;;;;;;;;5052499;28;880;-73
2023/10/31 10:15:28;;;;;;;;;;;;;;;;;;5034958;28;1258;-73
2023/10/31 10:17:53;;;;;;;;;;;;;;;;;;5034274;28;1252;-73
2023/10/31 10:20:18;;;;;;;;;;;;;;;;;;5051000;28;1175;-73
2023/10/31 10:22:44;;;;;;;;;;;;;;;;;;5051614;28;876;-73
2023/10/31 10:25:17;;;;;;;;;;;;;;;;;;5050128;28;1200;-72
2023/10/31 10:27:42;;;;;;;;;;;;;;;;;;5050949;28;1965;-73
2023/10/31 10:30:08;;;;;;;;;;;;;;;;;;5050080;28;1339;-73
2023/10/31 10:32:33;;;;;;;;;;;;;;;;;;5052259;28;953;-72
2023/10/31 10:35:00;;;;;;;;;;;;;;;;;;5051716;28;1219;-73
2023/10/31 10:37:30;;;;;;;;;;;;;;;;;;5031571;28;1491;-73
2023/10/31 10:39:56;;;;;;;;;;;;;;;;;;5017366;28;1229;-73
2023/10/31 10:42:28;;;;;;;;;;;;;;;;;;5030602;28;1652;-72
2023/10/31 10:44:58;;;;;;;;;;;;;;;;;;5030830;28;1337;-72
2023/10/31 10:47:25;;;;;;;;;;;;;;;;;;5030075;28;1257;-73
2023/10/31 10:49:54;;;;;;;;;;;;;;;;;;5030126;28;1973;-72
2023/10/31 10:52:27;;;;;;;;;;;;;;;;;;5030175;28;1177;-73
2023/10/31 10:54:56;;;;;;;;;;;;;;;;;;5030318;28;1550;-72
2023/10/31 10:57:39;;;;;;;;;;;;;;;;;;5030612;28;1161;-73
2023/10/31 11:00:08;;;;;;;;;;;;;;;;;;5030375;28;1472;-71
2023/10/31 11:02:37;;;;;;;;;;;;;;;;;;5030877;28;1239;-72
2023/10/31 11:05:07;;;;;;;;;;;;;;;;;;5030107;28;1274;-71
2023/10/31 11:07:34;;;;;;;;;;;;;;;;;;5029509;28;1239;-71
2023/10/31 11:10:02;;;;;;;;;;;;;;;;;;5028605;28;1940;-71
2023/10/31 11:12:29;;;;;;;;;;;;;;;;;;5014699;28;1532;-72
2023/10/31 11:14:55;;;;;;;;;;;;;;;;;;5032185;28;883;-71
2023/10/31 11:17:31;;;;;;;;;;;;;;;;;;5014807;28;1364;-81
2023/10/31 11:19:57;;;;;;;;;;;;;;;;;;5031056;28;1199;-76
2023/10/31 11:22:22;;;;;;;;;;;;;;;;;;5031155;28;1151;-72
2023/10/31 11:24:51;;;;;;;;;;;;;;;;;;5030732;28;865;-77
2023/10/31 11:27:17;;;;;;;;;;;;;;;;;;5031803;28;904;-79
2023/10/31 11:29:54;;;;;;;;;;;;;;;;;;5031323;28;1910;-79
2023/10/31 11:32:21;;;;;;;;;;;;;;;;;;5032364;28;1050;-78
2023/10/31 11:34:47;;;;;;;;;;;;;;;;;;5031786;28;1309;-73
2023/10/31 11:37:18;;;;;;;;;;;;;;;;;;5031307;28;1020;-77
2023/10/31 11:40:03;;;;;;;;;;;;;;;;;;5031915;28;1181;-77
2023/10/31 11:42:31;;;;;;;;;;;;;;;;;;5031159;28;1437;-79
2023/10/31 11:44:56;;;;;;;;;;;;;;;;;;5032251;28;861;-79
2023/10/31 11:47:22;;;;;;;;;;;;;;;;;;5031226;28;1133;-78
2023/10/31 11:49:48;;;;;;;;;;;;;;;;;;5032932;28;1886;-75
2023/10/31 11:52:19;;;;;;;;;;;;;;;;;;5031903;28;865;-76
2023/10/31 11:54:44;;;;;;;;;;;;;;;;;;5032866;28;833;-79
2023/10/31 11:57:10;;;;;;;;;;;;;;;;;;5030429;28;1193;-79
2023/10/31 11:59:38;;;;;;;;;;;;;;;;;;5030920;28;921;-79
2023/10/31 12:02:16;;;;;;;;;;;;;;;;;;5029818;28;924;-79
2023/10/31 12:04:42;;;;;;;;;;;;;;;;;;5032005;28;1170;-80
2023/10/31 12:07:08;;;;;;;;;;;;;;;;;;5031000;28;835;-78
2023/10/31 12:09:33;;;;;;;;;;;;;;;;;;5030136;28;1966;-79
2023/10/31 12:11:58;;;;;;;;;;;;;;;;;;5030399;28;881;-78
2023/10/31 12:14:24;;;;;;;;;;;;;;;;;;5013320;28;1190;-78
2023/10/31 12:16:49;;;;;;;;;;;;;;;;;;5042455;28;1145;-77
2023/10/31 12:19:14;;;;;;;;;;;;;;;;;;5029167;28;1164;-75
2023/10/31 12:21:42;;;;;;;;;;;;;;;;;;5032900;28;1046;-77
2023/10/31 12:24:08;;;;;;;;;;;;;;;;;;5030311;28;1198;-75
2023/10/31 12:26:35;;;;;;;;;;;;;;;;;;5032237;28;977;-75
2023/10/31 12:29:10;;;;;;;;;;;;;;;;;;5031851;28;1906;-74
2023/10/31 12:31:38;;;;;;;;;;;;;;;;;;5032208;28;857;-77
2023/10/31 12:34:04;;;;;;;;;;;;;;;;;;5032239;28;928;-75
2023/10/31 12:36:30;;;;;;;;;;;;;;;;;;5032484;28;948;-75
2023/10/31 12:38:55;;;;;;;;;;;;;;;;;;5031206;28;1272;-75
2023/10/31 12:41:24;;;;;;;;;;;;;;;;;;5030708;28;925;-77
2023/10/31 12:43:49;;;;;;;;;;;;;;;;;;5031533;28;1231;-75
2023/10/31 12:46:25;;;;;;;;;;;;;;;;;;5030781;28;1210;-75
2023/10/31 12:48:50;;;;;;;;;;;;;;;;;;5030850;28;1973;-76
2023/10/31 12:51:15;;;;;;;;;;;;;;;;;;5032514;28;896;-73
2023/10/31 12:53:41;;;;;;;;;;;;;;;;;;5032341;28;857;-74
2023/10/31 12:56:06;;;;;;;;;;;;;;;;;;5033100;28;923;-74
2023/10/31 12:58:31;;;;;;;;;;;;;;;;;;5034771;28;1008;-74
2023/10/31 13:00:57;;;;;;;;;;;;;;;;;;5036323;28;849;-73
2023/10/31 13:03:22;;;;;;;;;;;;;;;;;;5036144;28;1135;-73
2023/10/31 13:05:47;;;;;;;;;;;;;;;;;;5034125;28;1216;-76
2023/10/31 13:08:13;;;;;;;;;;;;;;;;;;5017325;28;2237;-73
2023/10/31 13:10:39;;;;;;;;;;;;;;;;;;5034708;28;802;-74
2023/10/31 13:13:04;;;;;;;;;;;;;;;;;;5033655;28;900;-73
2023/10/31 13:15:29;;;;;;;;;;;;;;;;;;5034194;28;1003;-74
2023/10/31 13:17:54;;;;;;;;;;;;;;;;;;5034408;28;1229;-72
2023/10/31 13:20:20;;;;;;;;;;;;;;;;;;5032763;28;841;-72
2023/10/31 13:22:46;;;;;;;;;;;;;;;;;;5033733;28;1211;-73
2023/10/31 13:25:12;;;;;;;;;;;;;;;;;;5032795;28;1343;-73
2023/10/31 13:27:38;;;;;;;;;;;;;;;;;;5035050;28;959;-73
2023/10/31 13:30:04;;;;;;;;;;;;;;;;;;5033632;28;1902;-73
2023/10/31 13:32:29;;;;;;;;;;;;;;;;;;5035395;28;892;-72
2023/10/31 13:34:55;;;;;;;;;;;;;;;;;;5034131;28;1427;-73
2023/10/31 13:37:20;;;;;;;;;;;;;;;;;;5035925;28;865;-74
2023/10/31 13:39:46;;;;;;;;;;;;;;;;;;5035655;28;844;-72
2023/10/31 13:42:11;;;;;;;;;;;;;;;;;;5034351;28;999;-73
2023/10/31 13:44:36;;;;;;;;;;;;;;;;;;5033819;28;976;-72
2023/10/31 13:47:02;;;;;;;;;;;;;;;;;;5033907;28;1039;-72
2023/10/31 13:49:27;;;;;;;;;;;;;;;;;;5033668;28;1963;-73
2023/10/31 13:51:53;;;;;;;;;;;;;;;;;;5033282;28;923;-73
2023/10/31 13:54:19;;;;;;;;;;;;;;;;;;5031771;28;1195;-72
2023/10/31 13:56:45;;;;;;;;;;;;;;;;;;5030718;28;1283;-74
2023/10/31 13:59:10;;;;;;;;;;;;;;;;;;5022578;28;1440;-73
2023/10/31 14:01:36;;;;;;;;;;;;;;;;;;5037140;28;837;-74
2023/10/31 14:04:01;;;;;;;;;;;;;;;;;;5033561;28;974;-75
2023/10/31 14:06:30;;;;;;;;;;;;;;;;;;5031585;28;889;-75
2023/10/31 14:08:55;;;;;;;;;;;;;;;;;;5033348;28;1902;-75
2023/10/31 14:11:20;;;;;;;;;;;;;;;;;;5033750;28;1004;-75
2023/10/31 14:13:45;;;;;;;;;;;;;;;;;;5015544;28;1410;-75
2023/10/31 14:16:12;;;;;;;;;;;;;;;;;;5032646;28;853;-75
2023/10/31 14:18:37;;;;;;;;;;;;;;;;;;5033997;28;834;-75
2023/10/31 14:21:03;;;;;;;;;;;;;;;;;;5031662;28;1353;-74
2023/10/31 14:23:28;;;;;;;;;;;;;;;;;;5032075;28;1406;-74
2023/10/31 14:25:53;;;;;;;;;;;;;;;;;;5033680;28;861;-74
2023/10/31 14:28:18;;;;;;;;;;;;;;;;;;5015185;28;1961;-74
2023/10/31 14:30:44;;;;;;;;;;;;;;;;;;5032882;28;913;-74
2023/10/31 14:33:09;;;;;;;;;;;;;;;;;;5033035;28;952;-74
2023/10/31 14:35:35;;;;;;;;;;;;;;;;;;5031747;28;1310;-74
2023/10/31 14:38:00;;;;;;;;;;;;;;;;;;5032379;28;833;-74
2023/10/31 14:40:25;;;;;;;;;;;;;;;;;;5014775;28;1282;-74
2023/10/31 14:42:51;;;;;;;;;;;;;;;;;;5031594;28;988;-73
2023/10/31 14:45:16;;;;;;;;;;;;;;;;;;5031764;28;832;-74
2023/10/31 14:47:41;;;;;;;;;;;;;;;;;;5030913;28;1275;-74
2023/10/31 14:50:07;;;;;;;;;;;;;;;;;;5031019;28;1910;-74
2023/10/31 14:52:32;;;;;;;;;;;;;;;;;;5032801;28;892;-74
2023/10/31 14:54:57;;;;;;;;;;;;;;;;;;5031150;28;1292;-74
2023/10/31 14:57:23;;;;;;;;;;;;;;;;;;5014325;28;1058;-75
2023/10/31 14:59:48;;;;;;;;;;;;;;;;;;5031466;28;1344;-74
2023/10/31 15:02:14;;;;;;;;;;;;;;;;;;5032378;28;805;-75
2023/10/31 15:04:39;;;;;;;;;;;;;;;;;;5033545;28;826;-74
2023/10/31 15:07:05;;;;;;;;;;;;;;;;;;5032480;28;864;-74
2023/10/31 15:09:30;;;;;;;;;;;;;;;;;;5033089;28;1971;-74
2023/10/31 15:11:55;;;;;;;;;;;;;;;;;;5033039;28;967;-74
2023/10/31 15:14:20;;;;;;;;;;;;;;;;;;5032502;28;892;-74
2023/10/31 15:16:46;;;;;;;;;;;;;;;;;;5031731;28;837;-74
2023/10/31 15:19:11;;;;;;;;;;;;;;;;;;5032431;28;830;-74
2023/10/31 15:21:36;;;;;;;;;;;;;;;;;;5032143;28;921;-74
2023/10/31 15:24:02;;;;;;;;;;;;;;;;;;5032058;28;908;-74
2023/10/31 15:26:28;;;;;;;;;;;;;;;;;;5032412;28;841;-74
2023/10/31 15:28:54;;;;;;;;;;;;;;;;;;5032532;28;1973;-74
2023/10/31 15:31:19;;;;;;;;;;;;;;;;;;5031629;28;787;-74
2023/10/31 15:33:45;;;;;;;;;;;;;;;;;;5032399;28;857;-75
2023/10/31 15:36:11;;;;;;;;;;;;;;;;;;5030169;28;897;-75
2023/10/31 15:38:37;;;;;;;;;;;;;;;;;;5030762;28;849;-75
2023/10/31 15:41:02;;;;;;;;;;;;;;;;;;5030483;28;1164;-75
2023/10/31 15:43:28;;;;;;;;;;;;;;;;;;5031903;28;845;-75
2023/10/31 15:45:53;;;;;;;;;;;;;;;;;;5032389;28;893;-74
2023/10/31 15:48:18;;;;;;;;;;;;;;;;;;5029417;28;1902;-75
2023/10/31 15:50:43;;;;;;;;;;;;;;;;;;5031899;28;967;-75
2023/10/31 15:53:09;;;;;;;;;;;;;;;;;;5014283;28;1271;-75
2023/10/31 15:55:34;;;;;;;;;;;;;;;;;;5032213;28;864;-75
2023/10/31 15:57:59;;;;;;;;;;;;;;;;;;5031650;28;857;-75
2023/10/31 16:00:26;;;;;;;;;;;;;;;;;;5032703;28;849;-72
2023/10/31 16:02:52;;;;;;;;;;;;;;;;;;5015662;28;1154;-73
2023/10/31 16:05:17;;;;;;;;;;;;;;;;;;5031681;28;924;-74
2023/10/31 16:07:43;;;;;;;;;;;;;;;;;;5032645;28;900;-75
2023/10/31 16:10:09;;;;;;;;;;;;;;;;;;5031286;28;1971;-75
2023/10/31 16:12:34;;;;;;;;;;;;;;;;;;5032752;28;1047;-74
2023/10/31 16:15:00;;;;;;;;;;;;;;;;;;5030500;28;1281;-76
2023/10/31 16:17:25;;;;;;;;;;;;;;;;;;5032186;28;833;-75
2023/10/31 16:19:50;;;;;;;;;;;;;;;;;;5031577;28;1289;-75
2023/10/31 16:22:16;;;;;;;;;;;;;;;;;;5032219;28;975;-74
2023/10/31 16:24:41;;;;;;;;;;;;;;;;;;5032239;28;782;-73
2023/10/31 16:27:06;;;;;;;;;;;;;;;;;;5031323;28;858;-72
2023/10/31 16:29:32;;;;;;;;;;;;;;;;;;5031676;28;1978;-81
2023/10/31 16:32:01;;;;;;;;;;;;;;;;;;5034675;28;905;-75
2023/10/31 16:34:26;;;;;;;;;;;;;;;;;;5035967;28;924;-76
2023/10/31 16:36:51;;;;;;;;;;;;;;;;;;5017375;28;1361;-76
2023/10/31 16:39:17;;;;;;;;;;;;;;;;;;5034052;28;848;-72
2023/10/31 16:41:42;;;;;;;;;;;;;;;;;;5035348;28;928;-76
2023/10/31 16:44:07;;;;;;;;;;;;;;;;;;5033684;28;967;-75
2023/10/31 16:46:32;;;;;;;;;;;;;;;;;;5035293;28;1050;-76
2023/10/31 16:48:58;;;;;;;;;;;;;;;;;;5034672;28;1996;-76
2023/10/31 16:51:23;;;;;;;;;;;;;;;;;;5035854;28;928;-76
2023/10/31 16:53:49;;;;;;;;;;;;;;;;;;5035335;28;873;-76
2023/10/31 16:56:15;;;;;;;;;;;;;;;;;;5035054;28;825;-76
2023/10/31 16:58:40;;;;;;;;;;;;;;;;;;5034138;28;1413;-76
2023/10/31 17:01:06;;;;;;;;;;;;;;;;;;5033430;28;1342;-77